sensor_id;sensor_type;location;lat;lon;timestamp;temperature;humidity
56172;DHT22;42052;41.634;-0.946;2023-06-10T00:02:32;26.60;49.40
56172;DHT22;42052;41.634;-0.946;2023-06-10T00:05:18;26.60;49.30
56172;DHT22;42052;41.634;-0.946;2023-06-10T00:08:07;26.60;49.50
56172;DHT22;42052;41.634;-0.946;2023-06-10T00:10:53;26.70;49.50
56172;DHT22;42052;41.634;-0.946;2023-06-10T00:13:39;26.70;49.60
56172;DHT22;42052;41.634;-0.946;2023-06-10T00:16:26;26.60;49.60
56172;DHT22;42052;41.634;-0.946;2023-06-10T00:19:12;26.50;48.80
56172;DHT22;42052;41.634;-0.946;2023-06-10T00:22:02;26.40;47.60
56172;DHT22;42052;41.634;-0.946;2023-06-10T00:24:48;26.20;48.00
56172;DHT22;42052;41.634;-0.946;2023-06-10T00:27:35;26.20;48.90
56172;DHT22;42052;41.634;-0.946;2023-06-10T00:30:21;26.20;49.20
56172;DHT22;42052;41.634;-0.946;2023-06-10T00:33:08;26.20;49.40
56172;DHT22;42052;41.634;-0.946;2023-06-10T00:35:54;26.20;49.30
56172;DHT22;42052;41.634;-0.946;2023-06-10T00:38:40;26.20;48.40
56172;DHT22;42052;41.634;-0.946;2023-06-10T00:41:26;26.10;48.50
56172;DHT22;42052;41.634;-0.946;2023-06-10T00:44:13;26.10;48.20
56172;DHT22;42052;41.634;-0.946;2023-06-10T00:46:59;26.00;47.80
56172;DHT22;42052;41.634;-0.946;2023-06-10T00:49:46;26.00;48.10
56172;DHT22;42052;41.634;-0.946;2023-06-10T00:52:33;25.90;47.90
56172;DHT22;42052;41.634;-0.946;2023-06-10T00:55:21;25.80;48.40
56172;DHT22;42052;41.634;-0.946;2023-06-10T00:58:09;25.80;48.30
56172;DHT22;42052;41.634;-0.946;2023-06-10T01:00:56;25.80;48.80
56172;DHT22;42052;41.634;-0.946;2023-06-10T01:03:43;25.80;49.20
56172;DHT22;42052;41.634;-0.946;2023-06-10T01:07:05;25.90;49.50
56172;DHT22;42052;41.634;-0.946;2023-06-10T01:13:04;26.00;49.50
56172;DHT22;42052;41.634;-0.946;2023-06-10T01:15:54;26.00;49.50
56172;DHT22;42052;41.634;-0.946;2023-06-10T01:18:41;26.00;49.60
56172;DHT22;42052;41.634;-0.946;2023-06-10T01:21:28;26.00;49.70
56172;DHT22;42052;41.634;-0.946;2023-06-10T01:24:14;26.00;49.80
56172;DHT22;42052;41.634;-0.946;2023-06-10T01:27:08;26.00;49.80
56172;DHT22;42052;41.634;-0.946;2023-06-10T01:30:00;26.00;50.00
56172;DHT22;42052;41.634;-0.946;2023-06-10T01:32:51;26.00;50.20
56172;DHT22;42052;41.634;-0.946;2023-06-10T01:35:38;26.00;50.40
56172;DHT22;42052;41.634;-0.946;2023-06-10T01:38:26;26.00;50.50
56172;DHT22;42052;41.634;-0.946;2023-06-10T01:41:16;26.00;50.50
56172;DHT22;42052;41.634;-0.946;2023-06-10T01:44:03;26.00;50.50
56172;DHT22;42052;41.634;-0.946;2023-06-10T01:46:49;26.00;50.70
56172;DHT22;42052;41.634;-0.946;2023-06-10T01:49:35;26.00;50.70
56172;DHT22;42052;41.634;-0.946;2023-06-10T01:52:22;26.00;50.70
56172;DHT22;42052;41.634;-0.946;2023-06-10T01:55:08;26.00;50.90
56172;DHT22;42052;41.634;-0.946;2023-06-10T01:57:54;26.00;51.20
56172;DHT22;42052;41.634;-0.946;2023-06-10T02:00:41;26.00;50.80
56172;DHT22;42052;41.634;-0.946;2023-06-10T02:03:27;25.90;50.90
56172;DHT22;42052;41.634;-0.946;2023-06-10T02:06:13;25.80;50.80
56172;DHT22;42052;41.634;-0.946;2023-06-10T02:08:59;25.80;50.70
56172;DHT22;42052;41.634;-0.946;2023-06-10T02:11:45;25.60;50.70
56172;DHT22;42052;41.634;-0.946;2023-06-10T02:14:33;25.50;51.00
56172;DHT22;42052;41.634;-0.946;2023-06-10T02:17:19;25.50;51.00
56172;DHT22;42052;41.634;-0.946;2023-06-10T02:20:06;25.50;50.80
56172;DHT22;42052;41.634;-0.946;2023-06-10T02:22:58;25.40;51.00
56172;DHT22;42052;41.634;-0.946;2023-06-10T02:25:44;25.40;50.90
56172;DHT22;42052;41.634;-0.946;2023-06-10T02:28:30;25.50;51.30
56172;DHT22;42052;41.634;-0.946;2023-06-10T02:31:17;25.50;51.00
56172;DHT22;42052;41.634;-0.946;2023-06-10T02:34:03;25.50;51.20
56172;DHT22;42052;41.634;-0.946;2023-06-10T02:36:50;25.50;51.00
56172;DHT22;42052;41.634;-0.946;2023-06-10T02:39:37;25.50;50.80
56172;DHT22;42052;41.634;-0.946;2023-06-10T02:42:23;25.50;50.60
56172;DHT22;42052;41.634;-0.946;2023-06-10T02:45:09;25.40;50.00
56172;DHT22;42052;41.634;-0.946;2023-06-10T02:47:55;25.40;49.50
56172;DHT22;42052;41.634;-0.946;2023-06-10T02:50:42;25.30;50.00
56172;DHT22;42052;41.634;-0.946;2023-06-10T02:53:28;25.40;50.40
56172;DHT22;42052;41.634;-0.946;2023-06-10T02:56:16;25.40;50.00
56172;DHT22;42052;41.634;-0.946;2023-06-10T02:59:02;25.30;49.50
56172;DHT22;42052;41.634;-0.946;2023-06-10T03:01:49;25.30;49.70
56172;DHT22;42052;41.634;-0.946;2023-06-10T03:04:35;25.30;50.00
56172;DHT22;42052;41.634;-0.946;2023-06-10T03:07:23;25.30;49.80
56172;DHT22;42052;41.634;-0.946;2023-06-10T03:10:09;25.30;49.20
56172;DHT22;42052;41.634;-0.946;2023-06-10T03:12:56;25.20;49.50
56172;DHT22;42052;41.634;-0.946;2023-06-10T03:15:42;25.30;49.70
56172;DHT22;42052;41.634;-0.946;2023-06-10T03:18:28;25.30;49.80
56172;DHT22;42052;41.634;-0.946;2023-06-10T03:21:14;25.30;49.50
56172;DHT22;42052;41.634;-0.946;2023-06-10T03:24:01;25.30;49.50
56172;DHT22;42052;41.634;-0.946;2023-06-10T03:26:47;25.40;49.40
56172;DHT22;42052;41.634;-0.946;2023-06-10T03:29:34;25.30;49.20
56172;DHT22;42052;41.634;-0.946;2023-06-10T03:32:20;25.30;49.10
56172;DHT22;42052;41.634;-0.946;2023-06-10T03:35:07;25.30;49.40
56172;DHT22;42052;41.634;-0.946;2023-06-10T03:37:53;25.30;49.70
56172;DHT22;42052;41.634;-0.946;2023-06-10T03:40:40;25.30;49.90
56172;DHT22;42052;41.634;-0.946;2023-06-10T03:43:26;25.40;49.80
56172;DHT22;42052;41.634;-0.946;2023-06-10T03:46:13;25.40;49.90
56172;DHT22;42052;41.634;-0.946;2023-06-10T03:48:59;25.40;49.90
56172;DHT22;42052;41.634;-0.946;2023-06-10T03:51:46;25.50;50.00
56172;DHT22;42052;41.634;-0.946;2023-06-10T03:54:32;25.50;50.00
56172;DHT22;42052;41.634;-0.946;2023-06-10T03:57:20;25.50;50.00
56172;DHT22;42052;41.634;-0.946;2023-06-10T04:00:07;25.50;50.10
56172;DHT22;42052;41.634;-0.946;2023-06-10T04:02:57;25.50;50.00
56172;DHT22;42052;41.634;-0.946;2023-06-10T04:05:43;25.50;50.10
56172;DHT22;42052;41.634;-0.946;2023-06-10T04:08:29;25.50;50.10
56172;DHT22;42052;41.634;-0.946;2023-06-10T04:11:17;25.50;50.30
56172;DHT22;42052;41.634;-0.946;2023-06-10T04:14:03;25.50;50.30
56172;DHT22;42052;41.634;-0.946;2023-06-10T04:16:50;25.50;50.50
56172;DHT22;42052;41.634;-0.946;2023-06-10T04:19:36;25.50;50.80
56172;DHT22;42052;41.634;-0.946;2023-06-10T04:22:23;25.60;50.90
56172;DHT22;42052;41.634;-0.946;2023-06-10T04:25:09;25.50;50.70
56172;DHT22;42052;41.634;-0.946;2023-06-10T04:27:58;25.50;51.00
56172;DHT22;42052;41.634;-0.946;2023-06-10T04:30:44;25.50;51.00
56172;DHT22;42052;41.634;-0.946;2023-06-10T04:33:31;25.50;51.10
56172;DHT22;42052;41.634;-0.946;2023-06-10T04:36:18;25.60;51.10
56172;DHT22;42052;41.634;-0.946;2023-06-10T04:39:04;25.60;51.20
56172;DHT22;42052;41.634;-0.946;2023-06-10T04:41:54;25.60;51.10
56172;DHT22;42052;41.634;-0.946;2023-06-10T04:44:40;25.60;51.30
56172;DHT22;42052;41.634;-0.946;2023-06-10T04:47:27;25.60;51.30
56172;DHT22;42052;41.634;-0.946;2023-06-10T04:50:14;25.60;51.30
56172;DHT22;42052;41.634;-0.946;2023-06-10T04:53:01;25.60;51.20
56172;DHT22;42052;41.634;-0.946;2023-06-10T04:55:47;25.60;51.40
56172;DHT22;42052;41.634;-0.946;2023-06-10T04:58:34;25.60;51.40
56172;DHT22;42052;41.634;-0.946;2023-06-10T05:01:20;25.60;51.40
56172;DHT22;42052;41.634;-0.946;2023-06-10T05:04:06;25.60;51.40
56172;DHT22;42052;41.634;-0.946;2023-06-10T05:06:52;25.60;51.40
56172;DHT22;42052;41.634;-0.946;2023-06-10T05:09:39;25.60;51.40
56172;DHT22;42052;41.634;-0.946;2023-06-10T05:12:25;25.60;51.30
56172;DHT22;42052;41.634;-0.946;2023-06-10T05:15:11;25.60;51.30
56172;DHT22;42052;41.634;-0.946;2023-06-10T05:17:58;25.60;51.30
56172;DHT22;42052;41.634;-0.946;2023-06-10T05:20:44;25.50;51.10
56172;DHT22;42052;41.634;-0.946;2023-06-10T05:23:31;25.60;51.10
56172;DHT22;42052;41.634;-0.946;2023-06-10T05:26:17;25.50;51.00
56172;DHT22;42052;41.634;-0.946;2023-06-10T05:29:06;25.50;51.20
56172;DHT22;42052;41.634;-0.946;2023-06-10T05:31:52;25.50;51.20
56172;DHT22;42052;41.634;-0.946;2023-06-10T05:34:39;25.50;51.20
56172;DHT22;42052;41.634;-0.946;2023-06-10T05:37:25;25.50;51.40
56172;DHT22;42052;41.634;-0.946;2023-06-10T05:40:12;25.50;51.30
56172;DHT22;42052;41.634;-0.946;2023-06-10T05:42:58;25.50;51.40
56172;DHT22;42052;41.634;-0.946;2023-06-10T05:45:44;25.50;51.40
56172;DHT22;42052;41.634;-0.946;2023-06-10T05:48:31;25.50;51.30
56172;DHT22;42052;41.634;-0.946;2023-06-10T05:51:17;25.50;50.90
56172;DHT22;42052;41.634;-0.946;2023-06-10T05:54:04;25.40;51.00
56172;DHT22;42052;41.634;-0.946;2023-06-10T05:56:50;25.30;51.10
56172;DHT22;42052;41.634;-0.946;2023-06-10T05:59:36;25.20;51.50
56172;DHT22;42052;41.634;-0.946;2023-06-10T06:02:23;25.20;51.60
56172;DHT22;42052;41.634;-0.946;2023-06-10T06:05:09;25.20;51.70
56172;DHT22;42052;41.634;-0.946;2023-06-10T06:07:55;25.30;51.90
56172;DHT22;42052;41.634;-0.946;2023-06-10T06:10:41;25.30;51.70
56172;DHT22;42052;41.634;-0.946;2023-06-10T06:13:27;25.30;51.90
56172;DHT22;42052;41.634;-0.946;2023-06-10T06:16:14;25.30;51.80
56172;DHT22;42052;41.634;-0.946;2023-06-10T06:19:00;25.30;52.10
56172;DHT22;42052;41.634;-0.946;2023-06-10T06:21:46;25.30;52.30
56172;DHT22;42052;41.634;-0.946;2023-06-10T06:24:32;25.30;52.30
56172;DHT22;42052;41.634;-0.946;2023-06-10T06:27:18;25.30;52.30
56172;DHT22;42052;41.634;-0.946;2023-06-10T06:30:06;25.30;52.30
56172;DHT22;42052;41.634;-0.946;2023-06-10T06:32:52;25.30;52.50
56172;DHT22;42052;41.634;-0.946;2023-06-10T06:35:38;25.30;52.70
56172;DHT22;42052;41.634;-0.946;2023-06-10T06:38:24;25.20;53.00
56172;DHT22;42052;41.634;-0.946;2023-06-10T06:41:11;25.20;52.90
56172;DHT22;42052;41.634;-0.946;2023-06-10T06:43:57;25.30;53.00
56172;DHT22;42052;41.634;-0.946;2023-06-10T06:46:43;25.20;53.30
56172;DHT22;42052;41.634;-0.946;2023-06-10T06:49:29;25.20;53.40
56172;DHT22;42052;41.634;-0.946;2023-06-10T06:52:16;25.20;53.40
56172;DHT22;42052;41.634;-0.946;2023-06-10T06:55:02;25.20;53.50
56172;DHT22;42052;41.634;-0.946;2023-06-10T06:57:48;25.20;53.50
56172;DHT22;42052;41.634;-0.946;2023-06-10T07:00:34;25.20;53.70
56172;DHT22;42052;41.634;-0.946;2023-06-10T07:03:21;25.20;53.80
56172;DHT22;42052;41.634;-0.946;2023-06-10T07:06:07;25.20;54.00
56172;DHT22;42052;41.634;-0.946;2023-06-10T07:08:53;25.20;54.10
56172;DHT22;42052;41.634;-0.946;2023-06-10T07:11:39;25.30;54.10
56172;DHT22;42052;41.634;-0.946;2023-06-10T07:14:26;25.30;54.00
56172;DHT22;42052;41.634;-0.946;2023-06-10T07:17:12;25.40;54.20
56172;DHT22;42052;41.634;-0.946;2023-06-10T07:19:58;25.40;54.40
56172;DHT22;42052;41.634;-0.946;2023-06-10T07:22:45;25.40;54.20
56172;DHT22;42052;41.634;-0.946;2023-06-10T07:25:32;25.50;54.50
56172;DHT22;42052;41.634;-0.946;2023-06-10T07:28:18;25.50;54.00
56172;DHT22;42052;41.634;-0.946;2023-06-10T07:31:04;25.60;54.20
56172;DHT22;42052;41.634;-0.946;2023-06-10T07:33:50;25.70;54.20
56172;DHT22;42052;41.634;-0.946;2023-06-10T07:36:36;25.70;54.00
56172;DHT22;42052;41.634;-0.946;2023-06-10T07:39:23;25.80;54.10
56172;DHT22;42052;41.634;-0.946;2023-06-10T07:42:09;25.80;53.80
56172;DHT22;42052;41.634;-0.946;2023-06-10T07:44:55;25.90;54.00
56172;DHT22;42052;41.634;-0.946;2023-06-10T07:47:42;25.90;53.70
56172;DHT22;42052;41.634;-0.946;2023-06-10T07:50:29;25.90;53.80
56172;DHT22;42052;41.634;-0.946;2023-06-10T07:53:15;25.90;53.40
56172;DHT22;42052;41.634;-0.946;2023-06-10T07:56:01;26.00;53.20
56172;DHT22;42052;41.634;-0.946;2023-06-10T07:58:47;26.00;53.90
56172;DHT22;42052;41.634;-0.946;2023-06-10T08:01:33;26.00;55.00
56172;DHT22;42052;41.634;-0.946;2023-06-10T08:04:21;26.00;54.20
56172;DHT22;42052;41.634;-0.946;2023-06-10T08:07:07;26.00;53.80
56172;DHT22;42052;41.634;-0.946;2023-06-10T08:09:53;26.10;53.90
56172;DHT22;42052;41.634;-0.946;2023-06-10T08:12:40;26.10;53.90
56172;DHT22;42052;41.634;-0.946;2023-06-10T08:15:26;26.10;54.50
56172;DHT22;42052;41.634;-0.946;2023-06-10T08:18:12;26.20;54.20
56172;DHT22;42052;41.634;-0.946;2023-06-10T08:20:59;26.20;54.10
56172;DHT22;42052;41.634;-0.946;2023-06-10T08:23:45;26.20;55.40
56172;DHT22;42052;41.634;-0.946;2023-06-10T08:26:31;26.20;55.40
56172;DHT22;42052;41.634;-0.946;2023-06-10T08:29:17;26.30;54.10
56172;DHT22;42052;41.634;-0.946;2023-06-10T08:32:04;26.30;55.20
56172;DHT22;42052;41.634;-0.946;2023-06-10T08:34:50;26.40;54.40
56172;DHT22;42052;41.634;-0.946;2023-06-10T08:37:37;26.40;55.00
56172;DHT22;42052;41.634;-0.946;2023-06-10T08:40:23;26.40;53.80
56172;DHT22;42052;41.634;-0.946;2023-06-10T08:43:39;26.40;53.20
56172;DHT22;42052;41.634;-0.946;2023-06-10T08:46:31;26.50;53.30
56172;DHT22;42052;41.634;-0.946;2023-06-10T08:49:19;26.50;54.00
56172;DHT22;42052;41.634;-0.946;2023-06-10T08:52:07;26.60;53.70
56172;DHT22;42052;41.634;-0.946;2023-06-10T08:55:03;26.60;51.80
56172;DHT22;42052;41.634;-0.946;2023-06-10T08:57:50;26.60;52.40
56172;DHT22;42052;41.634;-0.946;2023-06-10T09:00:36;26.50;51.50
56172;DHT22;42052;41.634;-0.946;2023-06-10T09:03:23;26.50;52.00
56172;DHT22;42052;41.634;-0.946;2023-06-10T09:06:10;26.60;52.60
56172;DHT22;42052;41.634;-0.946;2023-06-10T09:08:57;26.50;50.90
56172;DHT22;42052;41.634;-0.946;2023-06-10T09:11:43;26.50;51.50
56172;DHT22;42052;41.634;-0.946;2023-06-10T09:14:30;26.50;51.50
56172;DHT22;42052;41.634;-0.946;2023-06-10T09:17:17;26.50;50.80
56172;DHT22;42052;41.634;-0.946;2023-06-10T09:20:04;26.40;50.90
56172;DHT22;42052;41.634;-0.946;2023-06-10T09:22:50;26.40;52.90
56172;DHT22;42052;41.634;-0.946;2023-06-10T09:25:38;26.40;53.40
56172;DHT22;42052;41.634;-0.946;2023-06-10T09:28:25;26.40;52.20
56172;DHT22;42052;41.634;-0.946;2023-06-10T09:31:12;26.40;54.00
56172;DHT22;42052;41.634;-0.946;2023-06-10T09:34:12;26.40;52.90
56172;DHT22;42052;41.634;-0.946;2023-06-10T09:36:59;26.40;52.90
56172;DHT22;42052;41.634;-0.946;2023-06-10T09:40:04;26.40;51.50
56172;DHT22;42052;41.634;-0.946;2023-06-10T09:42:59;26.40;53.80
56172;DHT22;42052;41.634;-0.946;2023-06-10T09:45:52;26.40;54.50
56172;DHT22;42052;41.634;-0.946;2023-06-10T09:48:42;26.50;50.80
56172;DHT22;42052;41.634;-0.946;2023-06-10T09:51:29;26.50;51.40
56172;DHT22;42052;41.634;-0.946;2023-06-10T09:54:16;26.50;51.70
56172;DHT22;42052;41.634;-0.946;2023-06-10T09:57:07;26.50;52.10
56172;DHT22;42052;41.634;-0.946;2023-06-10T09:59:54;26.50;52.30
56172;DHT22;42052;41.634;-0.946;2023-06-10T10:02:48;26.50;52.40
56172;DHT22;42052;41.634;-0.946;2023-06-10T10:05:35;26.50;52.50
56172;DHT22;42052;41.634;-0.946;2023-06-10T10:08:22;26.50;52.60
56172;DHT22;42052;41.634;-0.946;2023-06-10T10:11:10;26.50;52.70
56172;DHT22;42052;41.634;-0.946;2023-06-10T10:13:56;26.50;52.80
56172;DHT22;42052;41.634;-0.946;2023-06-10T10:16:43;26.40;52.70
56172;DHT22;42052;41.634;-0.946;2023-06-10T10:19:32;26.50;52.80
56172;DHT22;42052;41.634;-0.946;2023-06-10T10:22:26;26.40;52.80
56172;DHT22;42052;41.634;-0.946;2023-06-10T10:25:24;26.40;52.80
56172;DHT22;42052;41.634;-0.946;2023-06-10T10:28:12;26.40;52.80
56172;DHT22;42052;41.634;-0.946;2023-06-10T10:31:05;26.40;52.90
56172;DHT22;42052;41.634;-0.946;2023-06-10T10:33:57;26.40;52.80
56172;DHT22;42052;41.634;-0.946;2023-06-10T10:36:45;26.40;52.70
56172;DHT22;42052;41.634;-0.946;2023-06-10T10:39:33;26.40;52.70
56172;DHT22;42052;41.634;-0.946;2023-06-10T10:42:20;26.40;52.70
56172;DHT22;42052;41.634;-0.946;2023-06-10T10:45:09;26.40;52.70
56172;DHT22;42052;41.634;-0.946;2023-06-10T10:47:55;26.40;52.60
56172;DHT22;42052;41.634;-0.946;2023-06-10T10:50:43;26.40;52.60
56172;DHT22;42052;41.634;-0.946;2023-06-10T10:53:30;26.40;52.60
56172;DHT22;42052;41.634;-0.946;2023-06-10T10:56:17;26.40;52.60
56172;DHT22;42052;41.634;-0.946;2023-06-10T10:59:07;26.40;52.60
56172;DHT22;42052;41.634;-0.946;2023-06-10T11:01:56;26.40;52.60
56172;DHT22;42052;41.634;-0.946;2023-06-10T11:04:47;26.40;52.60
56172;DHT22;42052;41.634;-0.946;2023-06-10T11:07:34;26.40;52.60
56172;DHT22;42052;41.634;-0.946;2023-06-10T11:10:41;26.40;52.60
56172;DHT22;42052;41.634;-0.946;2023-06-10T11:13:27;26.40;52.60
56172;DHT22;42052;41.634;-0.946;2023-06-10T11:16:19;26.40;52.60
56172;DHT22;42052;41.634;-0.946;2023-06-10T11:19:05;26.40;52.60
56172;DHT22;42052;41.634;-0.946;2023-06-10T11:21:58;26.40;52.60
56172;DHT22;42052;41.634;-0.946;2023-06-10T11:24:50;26.40;52.60
56172;DHT22;42052;41.634;-0.946;2023-06-10T11:27:39;26.40;52.60
56172;DHT22;42052;41.634;-0.946;2023-06-10T11:30:26;26.40;52.60
56172;DHT22;42052;41.634;-0.946;2023-06-10T11:33:17;26.40;52.60
56172;DHT22;42052;41.634;-0.946;2023-06-10T11:36:07;26.40;52.60
56172;DHT22;42052;41.634;-0.946;2023-06-10T11:38:56;26.40;52.70
56172;DHT22;42052;41.634;-0.946;2023-06-10T11:41:42;26.40;52.70
56172;DHT22;42052;41.634;-0.946;2023-06-10T11:44:29;26.40;52.70
56172;DHT22;42052;41.634;-0.946;2023-06-10T11:47:15;26.40;52.70
56172;DHT22;42052;41.634;-0.946;2023-06-10T11:50:02;26.40;52.90
56172;DHT22;42052;41.634;-0.946;2023-06-10T11:52:48;26.40;52.90
56172;DHT22;42052;41.634;-0.946;2023-06-10T11:55:45;26.50;53.00
56172;DHT22;42052;41.634;-0.946;2023-06-10T11:58:32;26.40;52.90
56172;DHT22;42052;41.634;-0.946;2023-06-10T12:01:23;26.50;53.00
56172;DHT22;42052;41.634;-0.946;2023-06-10T12:04:14;26.50;53.00
56172;DHT22;42052;41.634;-0.946;2023-06-10T12:07:01;26.40;53.00
56172;DHT22;42052;41.634;-0.946;2023-06-10T12:09:49;26.50;53.00
56172;DHT22;42052;41.634;-0.946;2023-06-10T12:12:44;26.40;53.00
56172;DHT22;42052;41.634;-0.946;2023-06-10T12:15:30;26.40;53.10
56172;DHT22;42052;41.634;-0.946;2023-06-10T12:18:22;26.50;53.20
56172;DHT22;42052;41.634;-0.946;2023-06-10T12:21:23;26.40;53.10
56172;DHT22;42052;41.634;-0.946;2023-06-10T12:24:10;26.40;53.10
56172;DHT22;42052;41.634;-0.946;2023-06-10T12:26:57;26.40;53.10
56172;DHT22;42052;41.634;-0.946;2023-06-10T12:29:51;26.40;53.10
56172;DHT22;42052;41.634;-0.946;2023-06-10T12:32:42;26.40;53.20
56172;DHT22;42052;41.634;-0.946;2023-06-10T12:35:29;26.40;53.20
56172;DHT22;42052;41.634;-0.946;2023-06-10T12:38:21;26.40;53.20
56172;DHT22;42052;41.634;-0.946;2023-06-10T12:41:07;26.40;53.20
56172;DHT22;42052;41.634;-0.946;2023-06-10T12:43:54;26.40;53.20
56172;DHT22;42052;41.634;-0.946;2023-06-10T12:46:40;26.40;53.30
56172;DHT22;42052;41.634;-0.946;2023-06-10T12:49:27;26.40;53.20
56172;DHT22;42052;41.634;-0.946;2023-06-10T12:52:13;26.40;53.20
56172;DHT22;42052;41.634;-0.946;2023-06-10T12:54:59;26.40;53.20
56172;DHT22;42052;41.634;-0.946;2023-06-10T12:57:49;26.50;53.30
56172;DHT22;42052;41.634;-0.946;2023-06-10T13:00:36;26.50;53.30
56172;DHT22;42052;41.634;-0.946;2023-06-10T13:03:22;26.50;53.30
56172;DHT22;42052;41.634;-0.946;2023-06-10T13:06:08;26.50;53.20
56172;DHT22;42052;41.634;-0.946;2023-06-10T13:08:55;26.50;53.20
56172;DHT22;42052;41.634;-0.946;2023-06-10T13:11:41;26.50;53.20
56172;DHT22;42052;41.634;-0.946;2023-06-10T13:14:28;26.50;53.20
56172;DHT22;42052;41.634;-0.946;2023-06-10T13:17:14;26.50;53.20
56172;DHT22;42052;41.634;-0.946;2023-06-10T13:20:04;26.50;53.20
56172;DHT22;42052;41.634;-0.946;2023-06-10T13:22:51;26.50;53.20
56172;DHT22;42052;41.634;-0.946;2023-06-10T13:25:37;26.50;53.20
56172;DHT22;42052;41.634;-0.946;2023-06-10T13:28:24;26.50;53.20
56172;DHT22;42052;41.634;-0.946;2023-06-10T13:31:11;26.50;53.20
56172;DHT22;42052;41.634;-0.946;2023-06-10T13:33:57;26.50;53.20
56172;DHT22;42052;41.634;-0.946;2023-06-10T13:36:43;26.50;53.20
56172;DHT22;42052;41.634;-0.946;2023-06-10T13:39:29;26.50;53.20
56172;DHT22;42052;41.634;-0.946;2023-06-10T13:42:19;26.50;53.10
56172;DHT22;42052;41.634;-0.946;2023-06-10T13:45:05;26.50;53.10
56172;DHT22;42052;41.634;-0.946;2023-06-10T13:47:52;26.50;53.20
56172;DHT22;42052;41.634;-0.946;2023-06-10T13:50:38;26.50;53.10
56172;DHT22;42052;41.634;-0.946;2023-06-10T13:53:24;26.50;53.10
56172;DHT22;42052;41.634;-0.946;2023-06-10T13:56:10;26.50;53.10
56172;DHT22;42052;41.634;-0.946;2023-06-10T13:58:57;26.50;53.10
56172;DHT22;42052;41.634;-0.946;2023-06-10T14:01:43;26.50;53.00
56172;DHT22;42052;41.634;-0.946;2023-06-10T14:04:30;26.50;53.10
56172;DHT22;42052;41.634;-0.946;2023-06-10T14:07:17;26.50;53.00
56172;DHT22;42052;41.634;-0.946;2023-06-10T14:10:03;26.50;53.10
56172;DHT22;42052;41.634;-0.946;2023-06-10T14:12:50;26.50;53.00
56172;DHT22;42052;41.634;-0.946;2023-06-10T14:15:37;26.60;53.10
56172;DHT22;42052;41.634;-0.946;2023-06-10T14:18:23;26.50;53.00
56172;DHT22;42052;41.634;-0.946;2023-06-10T14:21:09;26.50;53.00
56172;DHT22;42052;41.634;-0.946;2023-06-10T14:23:56;26.60;53.80
56172;DHT22;42052;41.634;-0.946;2023-06-10T14:26:42;26.60;53.00
56172;DHT22;42052;41.634;-0.946;2023-06-10T14:29:28;26.60;53.10
56172;DHT22;42052;41.634;-0.946;2023-06-10T14:32:14;26.60;53.00
56172;DHT22;42052;41.634;-0.946;2023-06-10T14:35:01;26.60;53.10
56172;DHT22;42052;41.634;-0.946;2023-06-10T14:37:47;26.60;53.10
56172;DHT22;42052;41.634;-0.946;2023-06-10T14:40:33;26.60;53.00
56172;DHT22;42052;41.634;-0.946;2023-06-10T14:43:19;26.60;53.10
56172;DHT22;42052;41.634;-0.946;2023-06-10T14:46:06;26.60;53.60
56172;DHT22;42052;41.634;-0.946;2023-06-10T14:48:52;26.60;53.00
56172;DHT22;42052;41.634;-0.946;2023-06-10T14:51:38;26.60;53.00
56172;DHT22;42052;41.634;-0.946;2023-06-10T14:54:24;26.60;53.00
56172;DHT22;42052;41.634;-0.946;2023-06-10T14:57:11;26.60;53.00
56172;DHT22;42052;41.634;-0.946;2023-06-10T14:59:57;26.60;53.10
56172;DHT22;42052;41.634;-0.946;2023-06-10T15:02:43;26.60;53.00
56172;DHT22;42052;41.634;-0.946;2023-06-10T15:05:29;26.60;53.10
56172;DHT22;42052;41.634;-0.946;2023-06-10T15:08:16;26.60;53.00
56172;DHT22;42052;41.634;-0.946;2023-06-10T15:11:02;26.60;53.10
56172;DHT22;42052;41.634;-0.946;2023-06-10T15:13:48;26.60;53.00
56172;DHT22;42052;41.634;-0.946;2023-06-10T15:16:35;26.60;53.00
56172;DHT22;42052;41.634;-0.946;2023-06-10T15:19:21;26.60;53.00
56172;DHT22;42052;41.634;-0.946;2023-06-10T15:22:07;26.60;53.00
56172;DHT22;42052;41.634;-0.946;2023-06-10T15:24:54;26.60;53.00
56172;DHT22;42052;41.634;-0.946;2023-06-10T15:27:40;26.60;53.00
56172;DHT22;42052;41.634;-0.946;2023-06-10T15:30:26;26.60;53.00
56172;DHT22;42052;41.634;-0.946;2023-06-10T15:33:13;26.60;53.00
56172;DHT22;42052;41.634;-0.946;2023-06-10T15:35:59;26.60;53.00
56172;DHT22;42052;41.634;-0.946;2023-06-10T15:38:45;26.60;53.00
56172;DHT22;42052;41.634;-0.946;2023-06-10T15:41:32;26.60;53.00
56172;DHT22;42052;41.634;-0.946;2023-06-10T15:44:19;26.60;53.00
56172;DHT22;42052;41.634;-0.946;2023-06-10T15:47:06;26.70;53.10
56172;DHT22;42052;41.634;-0.946;2023-06-10T15:49:53;26.60;53.00
56172;DHT22;42052;41.634;-0.946;2023-06-10T15:52:39;26.70;53.10
56172;DHT22;42052;41.634;-0.946;2023-06-10T15:55:25;26.60;53.00
56172;DHT22;42052;41.634;-0.946;2023-06-10T15:58:12;26.70;53.10
56172;DHT22;42052;41.634;-0.946;2023-06-10T16:00:58;26.60;53.00
56172;DHT22;42052;41.634;-0.946;2023-06-10T16:03:44;26.60;53.30
56172;DHT22;42052;41.634;-0.946;2023-06-10T16:06:30;26.60;53.40
56172;DHT22;42052;41.634;-0.946;2023-06-10T16:09:17;26.60;53.40
56172;DHT22;42052;41.634;-0.946;2023-06-10T16:12:03;26.70;53.40
56172;DHT22;42052;41.634;-0.946;2023-06-10T16:14:50;26.70;53.50
56172;DHT22;42052;41.634;-0.946;2023-06-10T16:17:36;26.70;53.30
56172;DHT22;42052;41.634;-0.946;2023-06-10T16:20:24;26.70;53.30
56172;DHT22;42052;41.634;-0.946;2023-06-10T16:23:10;26.70;53.40
56172;DHT22;42052;41.634;-0.946;2023-06-10T16:25:56;26.70;53.30
56172;DHT22;42052;41.634;-0.946;2023-06-10T16:28:43;26.70;53.30
56172;DHT22;42052;41.634;-0.946;2023-06-10T16:31:29;26.70;53.30
56172;DHT22;42052;41.634;-0.946;2023-06-10T16:34:15;26.70;53.30
56172;DHT22;42052;41.634;-0.946;2023-06-10T16:37:02;26.70;53.30
56172;DHT22;42052;41.634;-0.946;2023-06-10T16:39:48;26.80;53.40
56172;DHT22;42052;41.634;-0.946;2023-06-10T16:42:34;26.70;53.30
56172;DHT22;42052;41.634;-0.946;2023-06-10T16:45:21;26.70;53.30
56172;DHT22;42052;41.634;-0.946;2023-06-10T16:48:07;26.80;53.40
56172;DHT22;42052;41.634;-0.946;2023-06-10T16:50:55;26.80;53.40
56172;DHT22;42052;41.634;-0.946;2023-06-10T16:53:41;26.70;53.30
56172;DHT22;42052;41.634;-0.946;2023-06-10T16:56:27;26.70;53.40
56172;DHT22;42052;41.634;-0.946;2023-06-10T16:59:14;26.70;53.30
56172;DHT22;42052;41.634;-0.946;2023-06-10T17:02:00;26.70;53.30
56172;DHT22;42052;41.634;-0.946;2023-06-10T17:04:46;26.70;53.30
56172;DHT22;42052;41.634;-0.946;2023-06-10T17:07:32;26.80;53.40
56172;DHT22;42052;41.634;-0.946;2023-06-10T17:10:18;26.80;53.40
56172;DHT22;42052;41.634;-0.946;2023-06-10T17:13:04;26.80;53.40
56172;DHT22;42052;41.634;-0.946;2023-06-10T17:15:51;26.80;53.40
56172;DHT22;42052;41.634;-0.946;2023-06-10T17:18:37;26.80;53.40
56172;DHT22;42052;41.634;-0.946;2023-06-10T17:21:23;26.80;53.40
56172;DHT22;42052;41.634;-0.946;2023-06-10T17:24:09;26.80;53.40